sensor_id;sensor_type;location;lat;lon;timestamp;pressure;altitude;pressure_sealevel;temperature
26158;BMP280;67284;44.782;10.282;2023-07-13T00:04:04;100738.75;;;28.30
26158;BMP280;67284;44.782;10.282;2023-07-13T00:08:56;100734.19;;;28.21
26158;BMP280;67284;44.782;10.282;2023-07-13T00:13:48;100728.19;;;28.19
26158;BMP280;67284;44.782;10.282;2023-07-13T00:18:40;100737.34;;;28.15
26158;BMP280;67284;44.782;10.282;2023-07-13T00:23:37;100736.66;;;28.13
26158;BMP280;67284;44.782;10.282;2023-07-13T00:28:29;100719.19;;;28.10
26158;BMP280;67284;44.782;10.282;2023-07-13T00:33:22;100707.28;;;28.05
26158;BMP280;67284;44.782;10.282;2023-07-13T00:38:15;100678.69;;;27.99
26158;BMP280;67284;44.782;10.282;2023-07-13T00:43:17;100675.06;;;28.00
26158;BMP280;67284;44.782;10.282;2023-07-13T00:48:11;100661.16;;;27.98
26158;BMP280;67284;44.782;10.282;2023-07-13T00:53:04;100641.31;;;27.92
26158;BMP280;67284;44.782;10.282;2023-07-13T00:57:56;100632.09;;;27.87
26158;BMP280;67284;44.782;10.282;2023-07-13T01:02:48;100620.19;;;27.82
26158;BMP280;67284;44.782;10.282;2023-07-13T01:07:43;100613.72;;;27.85
26158;BMP280;67284;44.782;10.282;2023-07-13T01:12:35;100620.34;;;27.80
26158;BMP280;67284;44.782;10.282;2023-07-13T01:17:28;100637.88;;;27.81
26158;BMP280;67284;44.782;10.282;2023-07-13T01:22:21;100628.50;;;27.77
26158;BMP280;67284;44.782;10.282;2023-07-13T01:27:24;100627.94;;;27.74
26158;BMP280;67284;44.782;10.282;2023-07-13T01:32:19;100617.63;;;27.71
26158;BMP280;67284;44.782;10.282;2023-07-13T01:37:14;100611.72;;;27.67
26158;BMP280;67284;44.782;10.282;2023-07-13T01:42:06;100604.81;;;27.23
26158;BMP280;67284;44.782;10.282;2023-07-13T01:46:58;100608.47;;;26.66
26158;BMP280;67284;44.782;10.282;2023-07-13T01:51:50;100603.16;;;26.44
26158;BMP280;67284;44.782;10.282;2023-07-13T01:56:42;100608.28;;;26.34
26158;BMP280;67284;44.782;10.282;2023-07-13T02:01:34;100572.28;;;26.23
26158;BMP280;67284;44.782;10.282;2023-07-13T02:06:26;100573.19;;;26.11
26158;BMP280;67284;44.782;10.282;2023-07-13T02:11:18;100566.44;;;26.07
26158;BMP280;67284;44.782;10.282;2023-07-13T02:16:10;100606.75;;;26.09
26158;BMP280;67284;44.782;10.282;2023-07-13T02:21:03;100605.28;;;26.05
26158;BMP280;67284;44.782;10.282;2023-07-13T02:25:59;100601.59;;;26.07
26158;BMP280;67284;44.782;10.282;2023-07-13T02:30:52;100617.28;;;26.09
26158;BMP280;67284;44.782;10.282;2023-07-13T02:35:44;100601.13;;;26.13
26158;BMP280;67284;44.782;10.282;2023-07-13T02:40:36;100592.88;;;26.18
26158;BMP280;67284;44.782;10.282;2023-07-13T02:45:28;100601.06;;;26.25
26158;BMP280;67284;44.782;10.282;2023-07-13T02:50:20;100610.81;;;26.36
26158;BMP280;67284;44.782;10.282;2023-07-13T02:55:12;100626.16;;;26.42
26158;BMP280;67284;44.782;10.282;2023-07-13T03:00:05;100612.84;;;26.43
26158;BMP280;67284;44.782;10.282;2023-07-13T03:04:58;100607.38;;;26.46
26158;BMP280;67284;44.782;10.282;2023-07-13T03:09:56;100605.91;;;26.42
26158;BMP280;67284;44.782;10.282;2023-07-13T03:14:57;100621.75;;;26.42
26158;BMP280;67284;44.782;10.282;2023-07-13T03:19:49;100632.31;;;26.42
26158;BMP280;67284;44.782;10.282;2023-07-13T03:24:43;100624.63;;;26.39
26158;BMP280;67284;44.782;10.282;2023-07-13T03:29:35;100627.47;;;26.36
26158;BMP280;67284;44.782;10.282;2023-07-13T03:34:27;100631.47;;;26.29
26158;BMP280;67284;44.782;10.282;2023-07-13T03:39:18;100645.38;;;25.97
26158;BMP280;67284;44.782;10.282;2023-07-13T03:44:16;100646.75;;;25.79
26158;BMP280;67284;44.782;10.282;2023-07-13T03:49:11;100668.78;;;25.66
26158;BMP280;67284;44.782;10.282;2023-07-13T03:54:03;100673.75;;;25.58
26158;BMP280;67284;44.782;10.282;2023-07-13T03:58:56;100660.06;;;25.53
26158;BMP280;67284;44.782;10.282;2023-07-13T04:03:48;100675.47;;;25.47
26158;BMP280;67284;44.782;10.282;2023-07-13T04:08:41;100673.16;;;25.42
26158;BMP280;67284;44.782;10.282;2023-07-13T04:13:33;100686.00;;;25.34
26158;BMP280;67284;44.782;10.282;2023-07-13T04:18:25;100704.06;;;25.28
26158;BMP280;67284;44.782;10.282;2023-07-13T04:23:17;100697.75;;;25.30
26158;BMP280;67284;44.782;10.282;2023-07-13T04:28:09;100683.59;;;25.31
26158;BMP280;67284;44.782;10.282;2023-07-13T04:33:01;100666.63;;;25.35
26158;BMP280;67284;44.782;10.282;2023-07-13T04:37:53;100658.72;;;25.35
26158;BMP280;67284;44.782;10.282;2023-07-13T04:42:46;100662.22;;;25.36
26158;BMP280;67284;44.782;10.282;2023-07-13T04:47:38;100678.66;;;25.39
26158;BMP280;67284;44.782;10.282;2023-07-13T04:52:30;100689.72;;;25.44
26158;BMP280;67284;44.782;10.282;2023-07-13T04:57:22;100704.31;;;25.48
26158;BMP280;67284;44.782;10.282;2023-07-13T05:02:13;100731.41;;;25.50
26158;BMP280;67284;44.782;10.282;2023-07-13T05:07:05;100722.84;;;25.59
26158;BMP280;67284;44.782;10.282;2023-07-13T05:11:58;100734.47;;;25.69
26158;BMP280;67284;44.782;10.282;2023-07-13T05:16:49;100741.72;;;25.78
26158;BMP280;67284;44.782;10.282;2023-07-13T05:21:41;100729.28;;;25.80
26158;BMP280;67284;44.782;10.282;2023-07-13T05:26:33;100724.53;;;25.85
26158;BMP280;67284;44.782;10.282;2023-07-13T05:31:25;100704.88;;;25.89
26158;BMP280;67284;44.782;10.282;2023-07-13T05:36:17;100688.66;;;25.95
26158;BMP280;67284;44.782;10.282;2023-07-13T05:41:09;100701.94;;;25.93
26158;BMP280;67284;44.782;10.282;2023-07-13T05:46:01;100715.22;;;25.92
26158;BMP280;67284;44.782;10.282;2023-07-13T05:50:53;100696.78;;;25.92
26158;BMP280;67284;44.782;10.282;2023-07-13T05:55:46;100716.91;;;25.93
26158;BMP280;67284;44.782;10.282;2023-07-13T06:00:39;100709.97;;;25.92
26158;BMP280;67284;44.782;10.282;2023-07-13T06:05:33;100704.69;;;25.92
26158;BMP280;67284;44.782;10.282;2023-07-13T06:10:26;100719.75;;;25.90
26158;BMP280;67284;44.782;10.282;2023-07-13T06:15:17;100710.16;;;25.89
26158;BMP280;67284;44.782;10.282;2023-07-13T06:20:09;100717.44;;;25.85
26158;BMP280;67284;44.782;10.282;2023-07-13T06:25:02;100724.41;;;25.86
26158;BMP280;67284;44.782;10.282;2023-07-13T06:29:54;100708.59;;;25.86
26158;BMP280;67284;44.782;10.282;2023-07-13T06:34:46;100654.59;;;25.92
26158;BMP280;67284;44.782;10.282;2023-07-13T06:39:38;100681.44;;;25.97
26158;BMP280;67284;44.782;10.282;2023-07-13T06:44:30;100742.19;;;25.95
26158;BMP280;67284;44.782;10.282;2023-07-13T06:49:22;100789.44;;;25.86
26158;BMP280;67284;44.782;10.282;2023-07-13T06:54:14;100791.69;;;25.79
26158;BMP280;67284;44.782;10.282;2023-07-13T06:59:06;100714.00;;;25.85
26158;BMP280;67284;44.782;10.282;2023-07-13T07:03:57;100705.09;;;25.86
26158;BMP280;67284;44.782;10.282;2023-07-13T07:08:50;100692.69;;;25.88
26158;BMP280;67284;44.782;10.282;2023-07-13T07:13:42;100712.91;;;25.87
26158;BMP280;67284;44.782;10.282;2023-07-13T07:18:34;100718.91;;;25.89
26158;BMP280;67284;44.782;10.282;2023-07-13T07:23:26;100749.69;;;25.89
26158;BMP280;67284;44.782;10.282;2023-07-13T07:28:18;100755.41;;;25.83
26158;BMP280;67284;44.782;10.282;2023-07-13T07:33:14;100752.38;;;25.76
26158;BMP280;67284;44.782;10.282;2023-07-13T07:38:06;100726.56;;;25.69
26158;BMP280;67284;44.782;10.282;2023-07-13T07:43:00;100684.91;;;25.74
26158;BMP280;67284;44.782;10.282;2023-07-13T07:47:52;100695.47;;;25.74
26158;BMP280;67284;44.782;10.282;2023-07-13T07:52:46;100724.34;;;25.75
26158;BMP280;67284;44.782;10.282;2023-07-13T07:57:38;100716.22;;;25.78
26158;BMP280;67284;44.782;10.282;2023-07-13T08:02:33;100734.31;;;25.83
26158;BMP280;67284;44.782;10.282;2023-07-13T08:07:30;100746.34;;;25.87
26158;BMP280;67284;44.782;10.282;2023-07-13T08:12:22;100695.53;;;25.85
26158;BMP280;67284;44.782;10.282;2023-07-13T08:17:17;100661.47;;;25.82
26158;BMP280;67284;44.782;10.282;2023-07-13T08:22:09;100831.84;;;25.83
26158;BMP280;67284;44.782;10.282;2023-07-13T08:27:04;100823.22;;;25.81
26158;BMP280;67284;44.782;10.282;2023-07-13T08:31:57;100772.38;;;25.79
26158;BMP280;67284;44.782;10.282;2023-07-13T08:36:49;100747.94;;;25.77
26158;BMP280;67284;44.782;10.282;2023-07-13T08:41:41;100770.06;;;25.74
26158;BMP280;67284;44.782;10.282;2023-07-13T08:46:36;100736.88;;;25.72
26158;BMP280;67284;44.782;10.282;2023-07-13T08:51:41;100790.56;;;25.71
26158;BMP280;67284;44.782;10.282;2023-07-13T08:56:35;100806.13;;;25.74
26158;BMP280;67284;44.782;10.282;2023-07-13T09:01:32;100804.44;;;25.73
26158;BMP280;67284;44.782;10.282;2023-07-13T09:06:35;100805.50;;;25.70
26158;BMP280;67284;44.782;10.282;2023-07-13T09:11:46;100826.59;;;25.70
26158;BMP280;67284;44.782;10.282;2023-07-13T09:16:41;100858.31;;;25.69
26158;BMP280;67284;44.782;10.282;2023-07-13T09:21:37;100860.94;;;25.69
26158;BMP280;67284;44.782;10.282;2023-07-13T09:26:32;100866.41;;;25.66
26158;BMP280;67284;44.782;10.282;2023-07-13T09:31:38;100848.88;;;25.65
26158;BMP280;67284;44.782;10.282;2023-07-13T09:36:33;100855.78;;;25.68
26158;BMP280;67284;44.782;10.282;2023-07-13T09:41:38;100838.81;;;25.71
26158;BMP280;67284;44.782;10.282;2023-07-13T09:46:32;100828.81;;;25.76
26158;BMP280;67284;44.782;10.282;2023-07-13T09:51:24;100812.22;;;25.87
26158;BMP280;67284;44.782;10.282;2023-07-13T09:56:21;100819.59;;;25.94
26158;BMP280;67284;44.782;10.282;2023-07-13T10:01:14;100810.19;;;26.03
26158;BMP280;67284;44.782;10.282;2023-07-13T10:06:16;100807.13;;;26.09
26158;BMP280;67284;44.782;10.282;2023-07-13T10:16:07;100811.03;;;26.16
26158;BMP280;67284;44.782;10.282;2023-07-13T10:21:18;100810.47;;;26.23
26158;BMP280;67284;44.782;10.282;2023-07-13T10:26:17;100809.59;;;26.35
26158;BMP280;67284;44.782;10.282;2023-07-13T10:31:13;100794.63;;;26.35
26158;BMP280;67284;44.782;10.282;2023-07-13T10:41:15;100787.31;;;26.39
26158;BMP280;67284;44.782;10.282;2023-07-13T10:46:13;100773.34;;;26.49
26158;BMP280;67284;44.782;10.282;2023-07-13T10:51:07;100757.78;;;26.57
26158;BMP280;67284;44.782;10.282;2023-07-13T10:56:02;100764.50;;;26.61
26158;BMP280;67284;44.782;10.282;2023-07-13T11:06:37;100744.16;;;26.74
26158;BMP280;67284;44.782;10.282;2023-07-13T11:11:38;100733.16;;;26.80
26158;BMP280;67284;44.782;10.282;2023-07-13T11:16:38;100726.19;;;26.79
26158;BMP280;67284;44.782;10.282;2023-07-13T11:21:33;100712.06;;;26.80
26158;BMP280;67284;44.782;10.282;2023-07-13T11:31:39;100706.31;;;26.86
26158;BMP280;67284;44.782;10.282;2023-07-13T11:36:36;100699.81;;;26.90
26158;BMP280;67284;44.782;10.282;2023-07-13T11:41:35;100698.78;;;26.92
26158;BMP280;67284;44.782;10.282;2023-07-13T11:46:27;100700.09;;;26.98
26158;BMP280;67284;44.782;10.282;2023-07-13T11:51:34;100694.38;;;27.47
26158;BMP280;67284;44.782;10.282;2023-07-13T11:56:26;100684.28;;;28.47
26158;BMP280;67284;44.782;10.282;2023-07-13T12:01:26;100679.69;;;29.01
26158;BMP280;67284;44.782;10.282;2023-07-13T12:06:28;100667.44;;;29.30
26158;BMP280;67284;44.782;10.282;2023-07-13T12:11:20;100656.47;;;29.43
26158;BMP280;67284;44.782;10.282;2023-07-13T12:16:26;100657.31;;;29.53
26158;BMP280;67284;44.782;10.282;2023-07-13T12:21:19;100657.50;;;29.61
26158;BMP280;67284;44.782;10.282;2023-07-13T12:26:14;100649.47;;;29.82
26158;BMP280;67284;44.782;10.282;2023-07-13T12:31:22;100635.84;;;30.14
26158;BMP280;67284;44.782;10.282;2023-07-13T12:36:15;100625.06;;;30.53
26158;BMP280;67284;44.782;10.282;2023-07-13T12:41:08;100622.84;;;31.04
26158;BMP280;67284;44.782;10.282;2023-07-13T12:46:03;100617.00;;;31.01
26158;BMP280;67284;44.782;10.282;2023-07-13T12:50:56;100615.72;;;30.50
26158;BMP280;67284;44.782;10.282;2023-07-13T12:55:57;100614.16;;;30.56
26158;BMP280;67284;44.782;10.282;2023-07-13T13:00:53;100626.47;;;30.67
26158;BMP280;67284;44.782;10.282;2023-07-13T13:05:46;100622.34;;;30.72
26158;BMP280;67284;44.782;10.282;2023-07-13T13:10:38;100620.28;;;30.66
26158;BMP280;67284;44.782;10.282;2023-07-13T13:15:30;100616.66;;;30.67
26158;BMP280;67284;44.782;10.282;2023-07-13T13:20:22;100608.25;;;30.72
26158;BMP280;67284;44.782;10.282;2023-07-13T13:25:15;100595.09;;;30.80
26158;BMP280;67284;44.782;10.282;2023-07-13T13:30:25;100578.88;;;30.92
26158;BMP280;67284;44.782;10.282;2023-07-13T13:35:19;100579.06;;;31.08
26158;BMP280;67284;44.782;10.282;2023-07-13T13:40:17;100580.59;;;31.10
26158;BMP280;67284;44.782;10.282;2023-07-13T13:45:10;100589.53;;;31.19
26158;BMP280;67284;44.782;10.282;2023-07-13T13:50:12;100572.44;;;31.21
26158;BMP280;67284;44.782;10.282;2023-07-13T13:55:14;100586.84;;;31.19
26158;BMP280;67284;44.782;10.282;2023-07-13T14:00:09;100584.69;;;31.32
26158;BMP280;67284;44.782;10.282;2023-07-13T14:05:04;100573.88;;;31.16
26158;BMP280;67284;44.782;10.282;2023-07-13T14:09:59;100585.84;;;31.20
26158;BMP280;67284;44.782;10.282;2023-07-13T14:14:52;100602.06;;;31.26
26158;BMP280;67284;44.782;10.282;2023-07-13T14:19:44;100591.16;;;31.20
26158;BMP280;67284;44.782;10.282;2023-07-13T14:24:35;100592.00;;;31.30
26158;BMP280;67284;44.782;10.282;2023-07-13T14:29:27;100583.63;;;31.42
26158;BMP280;67284;44.782;10.282;2023-07-13T14:34:19;100597.63;;;31.54
26158;BMP280;67284;44.782;10.282;2023-07-13T14:39:23;100607.94;;;31.57
26158;BMP280;67284;44.782;10.282;2023-07-13T14:44:17;100607.78;;;31.58
26158;BMP280;67284;44.782;10.282;2023-07-13T14:54:27;100603.00;;;31.61
26158;BMP280;67284;44.782;10.282;2023-07-13T14:59:19;100630.00;;;31.66
26158;BMP280;67284;44.782;10.282;2023-07-13T15:04:11;100637.75;;;31.77
26158;BMP280;67284;44.782;10.282;2023-07-13T15:09:03;100639.66;;;31.85
26158;BMP280;67284;44.782;10.282;2023-07-13T15:13:55;100654.00;;;31.74
26158;BMP280;67284;44.782;10.282;2023-07-13T15:18:47;100636.59;;;31.80
26158;BMP280;67284;44.782;10.282;2023-07-13T15:23:40;100635.63;;;31.81
26158;BMP280;67284;44.782;10.282;2023-07-13T15:28:32;100635.25;;;31.76
26158;BMP280;67284;44.782;10.282;2023-07-13T15:33:27;100633.53;;;31.84
26158;BMP280;67284;44.782;10.282;2023-07-13T15:38:25;100634.19;;;31.86
26158;BMP280;67284;44.782;10.282;2023-07-13T15:43:17;100629.63;;;31.79
26158;BMP280;67284;44.782;10.282;2023-07-13T15:48:18;100642.78;;;31.80
26158;BMP280;67284;44.782;10.282;2023-07-13T15:53:10;100636.03;;;31.86
26158;BMP280;67284;44.782;10.282;2023-07-13T15:58:02;100639.22;;;31.89
26158;BMP280;67284;44.782;10.282;2023-07-13T16:02:54;100628.97;;;31.94
26158;BMP280;67284;44.782;10.282;2023-07-13T16:07:47;100632.78;;;32.09
26158;BMP280;67284;44.782;10.282;2023-07-13T16:12:40;100625.19;;;32.14
26158;BMP280;67284;44.782;10.282;2023-07-13T16:17:33;100631.56;;;32.21
26158;BMP280;67284;44.782;10.282;2023-07-13T16:22:25;100635.88;;;32.22
26158;BMP280;67284;44.782;10.282;2023-07-13T16:27:17;100632.56;;;32.20
26158;BMP280;67284;44.782;10.282;2023-07-13T16:32:11;100630.44;;;32.23
26158;BMP280;67284;44.782;10.282;2023-07-13T16:37:16;100631.94;;;32.26
26158;BMP280;67284;44.782;10.282;2023-07-13T16:42:09;100634.50;;;32.35
26158;BMP280;67284;44.782;10.282;2023-07-13T16:47:03;100625.88;;;32.33
26158;BMP280;67284;44.782;10.282;2023-07-13T16:51:57;100629.88;;;32.37
26158;BMP280;67284;44.782;10.282;2023-07-13T16:56:53;100624.41;;;32.39
26158;BMP280;67284;44.782;10.282;2023-07-13T17:01:46;100627.06;;;32.39
26158;BMP280;67284;44.782;10.282;2023-07-13T17:06:38;100627.63;;;32.25
26158;BMP280;67284;44.782;10.282;2023-07-13T17:11:32;100625.56;;;32.02
26158;BMP280;67284;44.782;10.282;2023-07-13T17:16:25;100633.84;;;31.99
26158;BMP280;67284;44.782;10.282;2023-07-13T17:21:17;100623.09;;;31.91
26158;BMP280;67284;44.782;10.282;2023-07-13T17:26:09;100624.38;;;31.87
26158;BMP280;67284;44.782;10.282;2023-07-13T17:31:01;100623.16;;;31.81
26158;BMP280;67284;44.782;10.282;2023-07-13T17:35:54;100622.88;;;31.84
26158;BMP280;67284;44.782;10.282;2023-07-13T17:40:46;100630.16;;;31.82
26158;BMP280;67284;44.782;10.282;2023-07-13T17:45:38;100644.75;;;31.78
26158;BMP280;67284;44.782;10.282;2023-07-13T17:50:34;100639.19;;;31.72
26158;BMP280;67284;44.782;10.282;2023-07-13T17:55:29;100650.97;;;31.69
26158;BMP280;67284;44.782;10.282;2023-07-13T18:00:22;100643.34;;;31.74
26158;BMP280;67284;44.782;10.282;2023-07-13T18:05:19;100652.25;;;31.65
26158;BMP280;67284;44.782;10.282;2023-07-13T18:10:14;100654.28;;;31.54
26158;BMP280;67284;44.782;10.282;2023-07-13T18:15:09;100651.66;;;31.45
26158;BMP280;67284;44.782;10.282;2023-07-13T18:20:02;100656.16;;;31.44
26158;BMP280;67284;44.782;10.282;2023-07-13T18:25:12;100651.50;;;31.46
26158;BMP280;67284;44.782;10.282;2023-07-13T18:30:05;100644.41;;;31.47
26158;BMP280;67284;44.782;10.282;2023-07-13T18:35:00;100644.53;;;31.45
26158;BMP280;67284;44.782;10.282;2023-07-13T18:39:52;100654.47;;;31.43
26158;BMP280;67284;44.782;10.282;2023-07-13T18:44:44;100660.09;;;31.31
26158;BMP280;67284;44.782;10.282;2023-07-13T18:49:38;100663.81;;;31.11
26158;BMP280;67284;44.782;10.282;2023-07-13T18:54:29;100669.59;;;30.97
26158;BMP280;67284;44.782;10.282;2023-07-13T18:59:21;100672.22;;;30.88
26158;BMP280;67284;44.782;10.282;2023-07-13T19:04:30;100673.38;;;30.85
26158;BMP280;67284;44.782;10.282;2023-07-13T19:09:23;100676.72;;;30.78
26158;BMP280;67284;44.782;10.282;2023-07-13T19:14:20;100695.91;;;30.72
26158;BMP280;67284;44.782;10.282;2023-07-13T19:19:16;100702.47;;;30.68
26158;BMP280;67284;44.782;10.282;2023-07-13T19:24:12;100704.59;;;30.64
26158;BMP280;67284;44.782;10.282;2023-07-13T19:29:05;100716.16;;;30.63
26158;BMP280;67284;44.782;10.282;2023-07-13T19:33:57;100721.75;;;30.60
26158;BMP280;67284;44.782;10.282;2023-07-13T19:38:49;100722.88;;;30.58
26158;BMP280;67284;44.782;10.282;2023-07-13T19:43:42;100732.25;;;30.52
26158;BMP280;67284;44.782;10.282;2023-07-13T19:48:34;100755.59;;;30.49
26158;BMP280;67284;44.782;10.282;2023-07-13T19:53:26;100746.22;;;30.45
26158;BMP280;67284;44.782;10.282;2023-07-13T19:58:19;100742.16;;;30.41
26158;BMP280;67284;44.782;10.282;2023-07-13T20:03:11;100748.06;;;30.45
26158;BMP280;67284;44.782;10.282;2023-07-13T20:08:12;100754.03;;;30.47
26158;BMP280;67284;44.782;10.282;2023-07-13T20:13:12;100746.09;;;30.47
26158;BMP280;67284;44.782;10.282;2023-07-13T20:18:11;100755.28;;;30.43
26158;BMP280;67284;44.782;10.282;2023-07-13T20:23:25;100769.53;;;30.42
26158;BMP280;67284;44.782;10.282;2023-07-13T20:28:18;100762.56;;;30.41
26158;BMP280;67284;44.782;10.282;2023-07-13T20:33:21;100773.47;;;30.38
26158;BMP280;67284;44.782;10.282;2023-07-13T20:38:16;100774.31;;;30.38
26158;BMP280;67284;44.782;10.282;2023-07-13T20:43:09;100786.75;;;30.38
26158;BMP280;67284;44.782;10.282;2023-07-13T20:48:20;100790.38;;;30.37
26158;BMP280;67284;44.782;10.282;2023-07-13T20:53:16;100799.00;;;30.29
26158;BMP280;67284;44.782;10.282;2023-07-13T20:58:09;100809.16;;;30.24
26158;BMP280;67284;44.782;10.282;2023-07-13T21:03:04;100820.59;;;30.25
26158;BMP280;67284;44.782;10.282;2023-07-13T21:07:57;100829.56;;;30.24
26158;BMP280;67284;44.782;10.282;2023-07-13T21:12:50;100829.94;;;30.19
26158;BMP280;67284;44.782;10.282;2023-07-13T21:17:42;100841.97;;;30.14
26158;BMP280;67284;44.782;10.282;2023-07-13T21:22:35;100843.47;;;30.07
26158;BMP280;67284;44.782;10.282;2023-07-13T21:27:27;100845.69;;;30.02
26158;BMP280;67284;44.782;10.282;2023-07-13T21:32:22;100847.91;;;29.97
26158;BMP280;67284;44.782;10.282;2023-07-13T21:37:18;100855.41;;;29.92
26158;BMP280;67284;44.782;10.282;2023-07-13T21:42:11;100866.44;;;29.88
26158;BMP280;67284;44.782;10.282;2023-07-13T21:47:04;100861.53;;;29.83
26158;BMP280;67284;44.782;10.282;2023-07-13T21:51:55;100878.63;;;29.79
26158;BMP280;67284;44.782;10.282;2023-07-13T21:56:47;100883.34;;;29.76
26158;BMP280;67284;44.782;10.282;2023-07-13T22:01:39;100889.88;;;29.72
26158;BMP280;67284;44.782;10.282;2023-07-13T22:06:31;100904.41;;;29.68
26158;BMP280;67284;44.782;10.282;2023-07-13T22:11:24;100905.75;;;29.62
26158;BMP280;67284;44.782;10.282;2023-07-13T22:21:11;100920.25;;;29.58
26158;BMP280;67284;44.782;10.282;2023-07-13T22:26:23;100919.66;;;29.55
26158;BMP280;67284;44.782;10.282;2023-07-13T22:31:15;100916.56;;;29.50
26158;BMP280;67284;44.782;10.282;2023-07-13T22:36:09;100909.00;;;29.45
26158;BMP280;67284;44.782;10.282;2023-07-13T22:41:01;100908.25;;;29.43
26158;BMP280;67284;44.782;10.282;2023-07-13T22:45:56;100898.75;;;29.41
26158;BMP280;67284;44.782;10.282;2023-07-13T22:50:49;100898.66;;;29.43
26158;BMP280;67284;44.782;10.282;2023-07-13T22:55:41;100893.59;;;29.40
26158;BMP280;67284;44.782;10.282;2023-07-13T23:00:33;100899.75;;;29.40
26158;BMP280;67284;44.782;10.282;2023-07-13T23:05:26;100905.88;;;29.41
26158;BMP280;67284;44.782;10.282;2023-07-13T23:10:19;100905.03;;;29.40
26158;BMP280;67284;44.782;10.282;2023-07-13T23:15:12;100915.03;;;29.37
26158;BMP280;67284;44.782;10.282;2023-07-13T23:20:18;100917.25;;;29.32
26158;BMP280;67284;44.782;10.282;2023-07-13T23:25:14;100922.09;;;29.27
26158;BMP280;67284;44.782;10.282;2023-07-13T23:30:13;100921.59;;;29.22
26158;BMP280;67284;44.782;10.282;2023-07-13T23:35:11;100919.91;;;29.21
26158;BMP280;67284;44.782;10.282;2023-07-13T23:40:21;100909.56;;;29.18
26158;BMP280;67284;44.782;10.282;2023-07-13T23:45:21;100907.31;;;29.13
26158;BMP280;67284;44.782;10.282;2023-07-13T23:50:25;100906.44;;;29.13
26158;BMP280;67284;44.782;10.282;2023-07-13T23:55:19;100912.00;;;29.10
